AirNav   Duncan Aviation - Near you to keep you flying
 
 403 users online  

2NC4 Scottbrook Farm Airport
Goldsboro, North Carolina, USA

GOING TO GOLDSBORO?


FAA INFORMATION EFFECTIVE 03 NOVEMBER 2022

Location

FAA Identifier: 2NC4
Lat/Long: 35-20-16.5860N 078-09-16.9770W
35-20.276433N 078-09.282950W
35.3379406,-78.1547158
(estimated)
Elevation: 160 ft. / 49 m (estimated)
Variation: 07W (1985)
From city: 12 miles SW of GOLDSBORO, NC
Time zone: UTC -5 (UTC -4 during Daylight Saving Time)
Zip code: 27530

Airport Operations

Airport use: Private use. Permission required prior to landing
Activation date: 08/1982
Control tower: no
ARTCC: WASHINGTON CENTER
FSS: RALEIGH FLIGHT SERVICE STATION
Attendance: UNATNDD
Wind indicator: yes
Segmented circle: no

Airport Communications

WX AWOS-3PT at GSB (10 nm E): 317.625
WX AWOS-3P at GWW (12 nm NE): 118.975 (919-731-4473)
WX AWOS-3 at JNX (17 nm NW): 120.225 (919-934-3851)

Nearby radio navigation aids

VOR radial/distance  VOR name  Freq  Var
ISOr271/29.3KINSTON VORTAC117.5005W

 
NDB name  Hdg/Dist  Freq  Var  ID
CLINTON034/24.041209WCTZ -.-. - --..
HARNETT111/26.141708WHQT .... --.- -

Airport Services

Runway Information

Runway 1/19

Dimensions: 1350 x 40 ft. / 411 x 12 m
640' STOPWAY ON NORTH END.
Surface: turf
RUNWAY 1  RUNWAY 19
Traffic pattern: leftleft
Obstructions: 32 ft. pline, 700 ft. from runway42 ft. pline, 840 ft. from runway

Airport Ownership and Management from official FAA records

Ownership: Privately-owned
Owner: KENNETH SCOTT
3545 STEVENS MILL RD
GOLDSBORO, NC 27530
Phone 919-689-9554
Manager: KENNETH SCOTT
3545 STEVENS MILL RD
GOLDSBORO, NC 27530
Phone 919-689-9554

Airport Operational Statistics

Aircraft based on the field: 3
Single engine airplanes: 3
    

Additional Remarks

FOR CD CTC WASHINGTON ARTCC AT 703-771-3587.

Instrument Procedures

There are no published instrument procedures at 2NC4.

Some nearby airports with instrument procedures:

W40 - Mount Olive Municipal Airport (9 nm SE)
KGSB - Seymour Johnson Air Force Base (10 nm E)
KGWW - Wayne Executive Jetport Airport (12 nm NE)
KJNX - Johnston Regional Airport (17 nm NW)
KDPL - Duplin County Airport (22 nm SE)
 
Loc | Ops | Rwys | IFR | FBO | Links
Com | Nav | Svcs | Stats | Notes
Area around 2NC4 (Scottbrook Farm Airport)
 
Road maps at: MapQuest Bing Google
 
Aerial photo
No photo
 
Sectional chart

 
Airport distance calculator
Flying to Scottbrook Farm Airport? Find the distance to fly.

From to 2NC4

Sunrise and sunset
Times for 28-Nov-2022
 Local
(UTC-5)
 Zulu
(UTC)
Morning civil twilight06:3411:34
Sunrise07:0112:01
Sunset17:0022:00
Evening civil twilight17:2822:28

Current date and time
Zulu (UTC)  28-Nov-2022 09:11:51
Local (UTC-5)  28-Nov-2022 04:11:51
 
METAR
KGSB 
9nm E 
280855Z 21008KT 10SM CLR 13/08 A2973 RMK AO2A SLP071 T01260075 52013 $
KGWW 
12nm NE 
280855Z AUTO 24008KT 10SM CLR 14/07 A2976 RMK AO2 T01350072
KJNX 
16nm NW 
280855Z AUTO 23004KT 10SM CLR 12/07 A2976 RMK AO2
TAF
KGSB 
9nm E 
280500Z 2805/2911 20015KT 9999 SCT030 QNH2965INS BECMG 2816/2817 23010KT 9999 BKN030 QNH2968INS BECMG 2905/2906 30006KT 9999 SCT030 QNH3000INS TX16/2818Z TN10/2812Z LAST NO AMDS AFT 2805 NEXT 2812
NOTAMs
Click for the latest NOTAMs
NOTAMs are issued by the DoD/FAA and will open in a separate window not controlled by AirNav.

 

 
 

Would you like to see your business listed on this page?

 If your business provides an interesting product or service to pilots, flight crews, aircraft, or users of the Scottbrook Farm Airport, you should consider listing it here.  To start the listing process, click on the button below
 
Add a business
 

Other Pages about Scottbrook Farm Airport

Update a link
 
Copyright © AirNav, LLC. All rights reserved. Privacy Policy  Contact